Santa Margherita — V7JA2 — position and weather

sailwx.info

Track history (hours):
 
Tides and Currents Weather Stations Pressure Air Temp Water Temp Dewpoint Dewpoint Depression Visibility Wind Speed Wind Dir Waves Ship Positions

Santa Margherita

Last reported at 2017-Mar-08 10:13 UTC. Time now 2017-Mar-29 15:19 UTC.
Position N 02°19' E 101°51'.
Warning: this ship's position is 21 days out of date.

Length 190 m; draft 8.5 m.

Type: Cargo ship. MMSI: 538090191.

Date/timePositionNaut miles runAvg speedWind from/ knotsBaromVisibWave heightAir tempDewpointWater temp
2017-Mar-08 10:13N 02°19' E 101°51'3311.9
2017-Mar-08 07:29N 01°57' E 102°15'1212.7
2017-Mar-08 06:33N 01°52' E 102°26'1313.0
2017-Mar-08 05:33N 01°47' E 102°38'5213.0
2017-Mar-08 01:32N 01°18' E 103°21'1211.9
2017-Mar-08 00:33N 01°13' E 103°32'1111.2
2017-Mar-07 23:33N 01°09' E 103°42'1010.3
2017-Mar-07 22:33N 01°12' E 103°52'1212.2
2017-Mar-07 21:32N 01°16' E 104°04'  
Track history (hours):
 
Tides and Currents Weather Stations Pressure Air Temp Water Temp Dewpoint Dewpoint Depression Visibility Wind Speed Wind Dir Waves Ship Positions

Santa Margherita

Last reported at 2017-Mar-08 10:13 UTC. Time now 2017-Mar-29 15:19 UTC.
Position N 02°19' E 101°51'.
Warning: this ship's position is 21 days out of date.

Length 190 m; draft 8.5 m.

Type: Cargo ship. MMSI: 538090191.

Date/timePositionNaut miles runAvg speedWind from/ knotsBaromVisibWave heightAir tempDewpointWater temp
2017-Mar-08 10:13N 02°19' E 101°51'3311.9
2017-Mar-08 07:29N 01°57' E 102°15'1212.7
2017-Mar-08 06:33N 01°52' E 102°26'1313.0
2017-Mar-08 05:33N 01°47' E 102°38'5213.0
2017-Mar-08 01:32N 01°18' E 103°21'1211.9
2017-Mar-08 00:33N 01°13' E 103°32'1111.2
2017-Mar-07 23:33N 01°09' E 103°42'1010.3
2017-Mar-07 22:33N 01°12' E 103°52'1212.2
2017-Mar-07 21:32N 01°16' E 104°04'  

Dump ship's entire track history